<?xml version="1.0" encoding="UTF-8" standalone="no" ?>
<gpx xmlns="http://www.topografix.com/GPX/1/1" xmlns:xsi="http://www.w3.org/2001/XMLSchema-instance" xsi:schemaLocation="http://www.topografix.com/GPX/1/1 http://www.topografix.com/GPX/1/1/gpx.xsd" version="1.1" creator="VisuGPX - https://www.visugpx.com">
  <metadata>
    <name>Tour de France 2019</name>
    <desc><![CDATA[4272km en 2 mois en tandem avec notre petit chien dans le panier avant]]></desc>
  </metadata>
  <trk>
    <name><![CDATA[Tracé 20190930-091834]]></name>
    <trkseg>
      <trkpt lat="47.58184" lon="6.55366">
        <ele>290.239</ele>
        <time>2019-09-30T07:22:34Z</time>
      </trkpt>
      <trkpt lat="47.58113" lon="6.55239">
        <ele>289.644</ele>
        <time>2019-09-30T07:23:04Z</time>
      </trkpt>
      <trkpt lat="47.58019" lon="6.55119">
        <ele>288.99</ele>
        <time>2019-09-30T07:23:34Z</time>
      </trkpt>
      <trkpt lat="47.5789" lon="6.54996">
        <ele>291.041</ele>
        <time>2019-09-30T07:24:04Z</time>
      </trkpt>
      <trkpt lat="47.57808" lon="6.54837">
        <ele>283.979</ele>
        <time>2019-09-30T07:24:34Z</time>
      </trkpt>
      <trkpt lat="47.57656" lon="6.54868">
        <ele>284.194</ele>
        <time>2019-09-30T07:25:04Z</time>
      </trkpt>
      <trkpt lat="47.57535" lon="6.54912">
        <ele>288.407</ele>
        <time>2019-09-30T07:25:34Z</time>
      </trkpt>
      <trkpt lat="47.57463" lon="6.54863">
        <ele>295.288</ele>
        <time>2019-09-30T07:26:10Z</time>
      </trkpt>
      <trkpt lat="47.57381" lon="6.54657">
        <ele>292.118</ele>
        <time>2019-09-30T07:26:40Z</time>
      </trkpt>
      <trkpt lat="47.57315" lon="6.5447">
        <ele>291.396</ele>
        <time>2019-09-30T07:27:10Z</time>
      </trkpt>
      <trkpt lat="47.57242" lon="6.54306">
        <ele>287.866</ele>
        <time>2019-09-30T07:27:40Z</time>
      </trkpt>
      <trkpt lat="47.57161" lon="6.54157">
        <ele>288.925</ele>
        <time>2019-09-30T07:28:10Z</time>
      </trkpt>
      <trkpt lat="47.57029" lon="6.53918">
        <ele>285.462</ele>
        <time>2019-09-30T07:28:40Z</time>
      </trkpt>
      <trkpt lat="47.57012" lon="6.53667">
        <ele>287.678</ele>
        <time>2019-09-30T07:29:10Z</time>
      </trkpt>
      <trkpt lat="47.56939" lon="6.53469">
        <ele>302.791</ele>
        <time>2019-09-30T07:29:40Z</time>
      </trkpt>
      <trkpt lat="47.56866" lon="6.53304">
        <ele>291.979</ele>
        <time>2019-09-30T07:30:10Z</time>
      </trkpt>
      <trkpt lat="47.56797" lon="6.53211">
        <ele>293.845</ele>
        <time>2019-09-30T07:30:40Z</time>
      </trkpt>
      <trkpt lat="47.56726" lon="6.53134">
        <ele>294.182</ele>
        <time>2019-09-30T07:31:10Z</time>
      </trkpt>
      <trkpt lat="47.56638" lon="6.53064">
        <ele>299.156</ele>
        <time>2019-09-30T07:31:40Z</time>
      </trkpt>
      <trkpt lat="47.56614" lon="6.52799">
        <ele>296.672</ele>
        <time>2019-09-30T07:32:10Z</time>
      </trkpt>
      <trkpt lat="47.5659" lon="6.52652">
        <ele>295.53</ele>
        <time>2019-09-30T07:32:40Z</time>
      </trkpt>
      <trkpt lat="47.56729" lon="6.52501">
        <ele>288.612</ele>
        <time>2019-09-30T07:33:10Z</time>
      </trkpt>
      <trkpt lat="47.56843" lon="6.52294">
        <ele>275.581</ele>
        <time>2019-09-30T07:33:40Z</time>
      </trkpt>
      <trkpt lat="47.56967" lon="6.52212">
        <ele>278.445</ele>
        <time>2019-09-30T07:34:10Z</time>
      </trkpt>
      <trkpt lat="47.56994" lon="6.52034">
        <ele>289.663</ele>
        <time>2019-09-30T07:34:40Z</time>
      </trkpt>
      <trkpt lat="47.57054" lon="6.51904">
        <ele>304.618</ele>
        <time>2019-09-30T07:35:10Z</time>
      </trkpt>
      <trkpt lat="47.57125" lon="6.51765">
        <ele>303.736</ele>
        <time>2019-09-30T07:35:40Z</time>
      </trkpt>
      <trkpt lat="47.57228" lon="6.51566">
        <ele>286.539</ele>
        <time>2019-09-30T07:36:10Z</time>
      </trkpt>
      <trkpt lat="47.57325" lon="6.51367">
        <ele>282.495</ele>
        <time>2019-09-30T07:36:40Z</time>
      </trkpt>
      <trkpt lat="47.57409" lon="6.51205">
        <ele>292.913</ele>
        <time>2019-09-30T07:37:10Z</time>
      </trkpt>
      <trkpt lat="47.57519" lon="6.50985">
        <ele>297.965</ele>
        <time>2019-09-30T07:37:40Z</time>
      </trkpt>
      <trkpt lat="47.57631" lon="6.50759">
        <ele>296.488</ele>
        <time>2019-09-30T07:38:10Z</time>
      </trkpt>
      <trkpt lat="47.57726" lon="6.50567">
        <ele>282.496</ele>
        <time>2019-09-30T07:38:40Z</time>
      </trkpt>
      <trkpt lat="47.57786" lon="6.50386">
        <ele>282.188</ele>
        <time>2019-09-30T07:39:10Z</time>
      </trkpt>
      <trkpt lat="47.57788" lon="6.50277">
        <ele>295.898</ele>
        <time>2019-09-30T07:39:40Z</time>
      </trkpt>
      <trkpt lat="47.57808" lon="6.50184">
        <ele>295.28</ele>
        <time>2019-09-30T07:40:10Z</time>
      </trkpt>
      <trkpt lat="47.57874" lon="6.50145">
        <ele>299.216</ele>
        <time>2019-09-30T07:40:40Z</time>
      </trkpt>
      <trkpt lat="47.57923" lon="6.50093">
        <ele>304.851</ele>
        <time>2019-09-30T07:41:10Z</time>
      </trkpt>
      <trkpt lat="47.57906" lon="6.49949">
        <ele>305.157</ele>
        <time>2019-09-30T07:41:40Z</time>
      </trkpt>
      <trkpt lat="47.57885" lon="6.49696">
        <ele>296.354</ele>
        <time>2019-09-30T07:42:10Z</time>
      </trkpt>
      <trkpt lat="47.57854" lon="6.49509">
        <ele>292.874</ele>
        <time>2019-09-30T07:42:40Z</time>
      </trkpt>
      <trkpt lat="47.57835" lon="6.4938">
        <ele>299.364</ele>
        <time>2019-09-30T07:43:10Z</time>
      </trkpt>
      <trkpt lat="47.57838" lon="6.49229">
        <ele>291.872</ele>
        <time>2019-09-30T07:43:40Z</time>
      </trkpt>
      <trkpt lat="47.57883" lon="6.48848">
        <ele>278.288</ele>
        <time>2019-09-30T07:44:10Z</time>
      </trkpt>
      <trkpt lat="47.57898" lon="6.48751">
        <ele>280.687</ele>
        <time>2019-09-30T07:44:40Z</time>
      </trkpt>
      <trkpt lat="47.57922" lon="6.48663">
        <ele>284.821</ele>
        <time>2019-09-30T07:45:10Z</time>
      </trkpt>
      <trkpt lat="47.57979" lon="6.48516">
        <ele>286.648</ele>
        <time>2019-09-30T07:45:40Z</time>
      </trkpt>
      <trkpt lat="47.58012" lon="6.48214">
        <ele>281.112</ele>
        <time>2019-09-30T07:46:10Z</time>
      </trkpt>
      <trkpt lat="47.58021" lon="6.4805">
        <ele>284.348</ele>
        <time>2019-09-30T07:46:40Z</time>
      </trkpt>
      <trkpt lat="47.5801" lon="6.47926">
        <ele>291.182</ele>
        <time>2019-09-30T07:47:10Z</time>
      </trkpt>
      <trkpt lat="47.58028" lon="6.47689">
        <ele>288.004</ele>
        <time>2019-09-30T07:47:40Z</time>
      </trkpt>
      <trkpt lat="47.58125" lon="6.47433">
        <ele>277.317</ele>
        <time>2019-09-30T07:48:10Z</time>
      </trkpt>
      <trkpt lat="47.5811" lon="6.47239">
        <ele>284.882</ele>
        <time>2019-09-30T07:48:40Z</time>
      </trkpt>
      <trkpt lat="47.58144" lon="6.47179">
        <ele>290.92</ele>
        <time>2019-09-30T07:49:10Z</time>
      </trkpt>
      <trkpt lat="47.58034" lon="6.47136">
        <ele>283.063</ele>
        <time>2019-09-30T07:49:40Z</time>
      </trkpt>
      <trkpt lat="47.5788" lon="6.47133">
        <ele>275.879</ele>
        <time>2019-09-30T07:50:10Z</time>
      </trkpt>
      <trkpt lat="47.57719" lon="6.47138">
        <ele>272.938</ele>
        <time>2019-09-30T07:50:40Z</time>
      </trkpt>
      <trkpt lat="47.57575" lon="6.47057">
        <ele>269.89</ele>
        <time>2019-09-30T07:51:10Z</time>
      </trkpt>
      <trkpt lat="47.57487" lon="6.46849">
        <ele>268.024</ele>
        <time>2019-09-30T07:51:40Z</time>
      </trkpt>
      <trkpt lat="47.57383" lon="6.46682">
        <ele>268.016</ele>
        <time>2019-09-30T07:52:10Z</time>
      </trkpt>
      <trkpt lat="47.57241" lon="6.466">
        <ele>269.962</ele>
        <time>2019-09-30T07:52:40Z</time>
      </trkpt>
      <trkpt lat="47.57084" lon="6.46591">
        <ele>271.867</ele>
        <time>2019-09-30T07:53:10Z</time>
      </trkpt>
      <trkpt lat="47.57023" lon="6.46441">
        <ele>280.188</ele>
        <time>2019-09-30T07:53:40Z</time>
      </trkpt>
      <trkpt lat="47.56999" lon="6.46251">
        <ele>289.345</ele>
        <time>2019-09-30T07:54:10Z</time>
      </trkpt>
      <trkpt lat="47.56961" lon="6.45984">
        <ele>294.976</ele>
        <time>2019-09-30T07:54:40Z</time>
      </trkpt>
      <trkpt lat="47.56925" lon="6.45709">
        <ele>287.121</ele>
        <time>2019-09-30T07:55:10Z</time>
      </trkpt>
      <trkpt lat="47.56883" lon="6.45477">
        <ele>268.651</ele>
        <time>2019-09-30T07:55:40Z</time>
      </trkpt>
      <trkpt lat="47.56818" lon="6.45269">
        <ele>261.23</ele>
        <time>2019-09-30T07:56:10Z</time>
      </trkpt>
      <trkpt lat="47.56752" lon="6.45064">
        <ele>261.87</ele>
        <time>2019-09-30T07:56:40Z</time>
      </trkpt>
      <trkpt lat="47.56653" lon="6.44885">
        <ele>273.859</ele>
        <time>2019-09-30T07:57:10Z</time>
      </trkpt>
      <trkpt lat="47.56533" lon="6.44858">
        <ele>277.727</ele>
        <time>2019-09-30T07:57:40Z</time>
      </trkpt>
      <trkpt lat="47.56422" lon="6.4505">
        <ele>271.244</ele>
        <time>2019-09-30T07:58:10Z</time>
      </trkpt>
      <trkpt lat="47.56359" lon="6.45264">
        <ele>267.309</ele>
        <time>2019-09-30T07:58:40Z</time>
      </trkpt>
      <trkpt lat="47.56262" lon="6.45336">
        <ele>271.082</ele>
        <time>2019-09-30T07:59:10Z</time>
      </trkpt>
      <trkpt lat="47.56228" lon="6.45225">
        <ele>279.679</ele>
        <time>2019-09-30T07:59:40Z</time>
      </trkpt>
      <trkpt lat="47.56193" lon="6.4512">
        <ele>286.423</ele>
        <time>2019-09-30T08:00:10Z</time>
      </trkpt>
      <trkpt lat="47.56138" lon="6.45027">
        <ele>289.733</ele>
        <time>2019-09-30T08:00:40Z</time>
      </trkpt>
      <trkpt lat="47.56084" lon="6.44955">
        <ele>294.323</ele>
        <time>2019-09-30T08:01:10Z</time>
      </trkpt>
      <trkpt lat="47.56029" lon="6.44877">
        <ele>293.75</ele>
        <time>2019-09-30T08:01:40Z</time>
      </trkpt>
      <trkpt lat="47.55984" lon="6.44795">
        <ele>295.58</ele>
        <time>2019-09-30T08:02:10Z</time>
      </trkpt>
      <trkpt lat="47.5592" lon="6.44718">
        <ele>295.514</ele>
        <time>2019-09-30T08:02:40Z</time>
      </trkpt>
      <trkpt lat="47.5586" lon="6.44587">
        <ele>293.74</ele>
        <time>2019-09-30T08:03:10Z</time>
      </trkpt>
      <trkpt lat="47.5577" lon="6.44386">
        <ele>294.72</ele>
        <time>2019-09-30T08:03:40Z</time>
      </trkpt>
      <trkpt lat="47.55673" lon="6.44234">
        <ele>293.759</ele>
        <time>2019-09-30T08:04:10Z</time>
      </trkpt>
      <trkpt lat="47.55566" lon="6.44032">
        <ele>289.848</ele>
        <time>2019-09-30T08:04:40Z</time>
      </trkpt>
      <trkpt lat="47.55349" lon="6.43822">
        <ele>276.55</ele>
        <time>2019-09-30T08:05:10Z</time>
      </trkpt>
      <trkpt lat="47.55268" lon="6.43694">
        <ele>278.568</ele>
        <time>2019-09-30T08:05:40Z</time>
      </trkpt>
      <trkpt lat="47.55195" lon="6.43593">
        <ele>285.08</ele>
        <time>2019-09-30T08:06:10Z</time>
      </trkpt>
      <trkpt lat="47.55136" lon="6.43528">
        <ele>291.823</ele>
        <time>2019-09-30T08:06:40Z</time>
      </trkpt>
      <trkpt lat="47.55062" lon="6.43412">
        <ele>298.701</ele>
        <time>2019-09-30T08:07:10Z</time>
      </trkpt>
      <trkpt lat="47.55006" lon="6.43169">
        <ele>285.402</ele>
        <time>2019-09-30T08:07:40Z</time>
      </trkpt>
      <trkpt lat="47.54954" lon="6.42879">
        <ele>270.696</ele>
        <time>2019-09-30T08:08:10Z</time>
      </trkpt>
      <trkpt lat="47.54973" lon="6.42822">
        <ele>267.242</ele>
        <time>2019-09-30T08:09:22Z</time>
      </trkpt>
      <trkpt lat="47.54955" lon="6.42802">
        <ele>273.743</ele>
        <time>2019-09-30T08:37:07Z</time>
      </trkpt>
      <trkpt lat="47.54946" lon="6.42938">
        <ele>275.381</ele>
        <time>2019-09-30T08:37:37Z</time>
      </trkpt>
      <trkpt lat="47.54983" lon="6.43065">
        <ele>277.81</ele>
        <time>2019-09-30T08:38:07Z</time>
      </trkpt>
      <trkpt lat="47.55024" lon="6.43167">
        <ele>279.467</ele>
        <time>2019-09-30T08:38:37Z</time>
      </trkpt>
      <trkpt lat="47.55111" lon="6.43192">
        <ele>284.521</ele>
        <time>2019-09-30T08:39:10Z</time>
      </trkpt>
      <trkpt lat="47.55082" lon="6.4324">
        <ele>288.382</ele>
        <time>2019-09-30T08:39:40Z</time>
      </trkpt>
      <trkpt lat="47.55012" lon="6.43295">
        <ele>281.381</ele>
        <time>2019-09-30T08:40:10Z</time>
      </trkpt>
      <trkpt lat="47.55021" lon="6.4338">
        <ele>285.557</ele>
        <time>2019-09-30T08:40:40Z</time>
      </trkpt>
      <trkpt lat="47.551" lon="6.43454">
        <ele>290.705</ele>
        <time>2019-09-30T08:41:10Z</time>
      </trkpt>
      <trkpt lat="47.55292" lon="6.43511">
        <ele>279.823</ele>
        <time>2019-09-30T08:41:40Z</time>
      </trkpt>
      <trkpt lat="47.55449" lon="6.43504">
        <ele>268.437</ele>
        <time>2019-09-30T08:42:10Z</time>
      </trkpt>
      <trkpt lat="47.55604" lon="6.43489">
        <ele>263.2</ele>
        <time>2019-09-30T08:42:40Z</time>
      </trkpt>
      <trkpt lat="47.55648" lon="6.43273">
        <ele>267.838</ele>
        <time>2019-09-30T08:43:10Z</time>
      </trkpt>
      <trkpt lat="47.55625" lon="6.43141">
        <ele>270.313</ele>
        <time>2019-09-30T08:43:40Z</time>
      </trkpt>
      <trkpt lat="47.55558" lon="6.4297">
        <ele>269.55</ele>
        <time>2019-09-30T08:44:10Z</time>
      </trkpt>
      <trkpt lat="47.55531" lon="6.42759">
        <ele>268.025</ele>
        <time>2019-09-30T08:44:40Z</time>
      </trkpt>
      <trkpt lat="47.55516" lon="6.42499">
        <ele>266.459</ele>
        <time>2019-09-30T08:45:10Z</time>
      </trkpt>
      <trkpt lat="47.55503" lon="6.42256">
        <ele>264.6</ele>
        <time>2019-09-30T08:45:40Z</time>
      </trkpt>
      <trkpt lat="47.55491" lon="6.4203">
        <ele>263.78</ele>
        <time>2019-09-30T08:46:10Z</time>
      </trkpt>
      <trkpt lat="47.55481" lon="6.41818">
        <ele>265.747</ele>
        <time>2019-09-30T08:46:40Z</time>
      </trkpt>
      <trkpt lat="47.55474" lon="6.41722">
        <ele>265.354</ele>
        <time>2019-09-30T08:47:22Z</time>
      </trkpt>
      <trkpt lat="47.55382" lon="6.41514">
        <ele>262.946</ele>
        <time>2019-09-30T08:47:52Z</time>
      </trkpt>
      <trkpt lat="47.55399" lon="6.41445">
        <ele>260.056</ele>
        <time>2019-09-30T08:48:22Z</time>
      </trkpt>
      <trkpt lat="47.55345" lon="6.41314">
        <ele>266.217</ele>
        <time>2019-09-30T08:48:52Z</time>
      </trkpt>
      <trkpt lat="47.55215" lon="6.41137">
        <ele>269.505</ele>
        <time>2019-09-30T08:49:22Z</time>
      </trkpt>
      <trkpt lat="47.5509" lon="6.4101">
        <ele>262.49</ele>
        <time>2019-09-30T08:49:52Z</time>
      </trkpt>
      <trkpt lat="47.54949" lon="6.40916">
        <ele>262.954</ele>
        <time>2019-09-30T08:50:22Z</time>
      </trkpt>
      <trkpt lat="47.54794" lon="6.40856">
        <ele>268.053</ele>
        <time>2019-09-30T08:50:52Z</time>
      </trkpt>
      <trkpt lat="47.54634" lon="6.40851">
        <ele>268.39</ele>
        <time>2019-09-30T08:51:22Z</time>
      </trkpt>
      <trkpt lat="47.54503" lon="6.40818">
        <ele>276.617</ele>
        <time>2019-09-30T08:51:52Z</time>
      </trkpt>
      <trkpt lat="47.54383" lon="6.40749">
        <ele>277.997</ele>
        <time>2019-09-30T08:52:22Z</time>
      </trkpt>
      <trkpt lat="47.54272" lon="6.4066">
        <ele>280.5</ele>
        <time>2019-09-30T08:52:52Z</time>
      </trkpt>
      <trkpt lat="47.54176" lon="6.40551">
        <ele>285.151</ele>
        <time>2019-09-30T08:53:22Z</time>
      </trkpt>
      <trkpt lat="47.54102" lon="6.40435">
        <ele>278.936</ele>
        <time>2019-09-30T08:53:52Z</time>
      </trkpt>
      <trkpt lat="47.54053" lon="6.40297">
        <ele>280.626</ele>
        <time>2019-09-30T08:54:22Z</time>
      </trkpt>
      <trkpt lat="47.53985" lon="6.40056">
        <ele>281.672</ele>
        <time>2019-09-30T08:54:52Z</time>
      </trkpt>
      <trkpt lat="47.53965" lon="6.39975">
        <ele>276.276</ele>
        <time>2019-09-30T08:55:55Z</time>
      </trkpt>
      <trkpt lat="47.53914" lon="6.39767">
        <ele>277.149</ele>
        <time>2019-09-30T08:56:25Z</time>
      </trkpt>
      <trkpt lat="47.53855" lon="6.39525">
        <ele>282.933</ele>
        <time>2019-09-30T08:56:55Z</time>
      </trkpt>
      <trkpt lat="47.53796" lon="6.39284">
        <ele>279.294</ele>
        <time>2019-09-30T08:57:25Z</time>
      </trkpt>
      <trkpt lat="47.53727" lon="6.39043">
        <ele>260.754</ele>
        <time>2019-09-30T08:57:55Z</time>
      </trkpt>
      <trkpt lat="47.53665" lon="6.38778">
        <ele>260.033</ele>
        <time>2019-09-30T08:58:25Z</time>
      </trkpt>
      <trkpt lat="47.5365" lon="6.38721">
        <ele>259.645</ele>
        <time>2019-09-30T08:59:34Z</time>
      </trkpt>
      <trkpt lat="47.53596" lon="6.38568">
        <ele>259.276</ele>
        <time>2019-09-30T09:00:04Z</time>
      </trkpt>
      <trkpt lat="47.53488" lon="6.38422">
        <ele>261.083</ele>
        <time>2019-09-30T09:00:34Z</time>
      </trkpt>
      <trkpt lat="47.53337" lon="6.38345">
        <ele>258.976</ele>
        <time>2019-09-30T09:01:04Z</time>
      </trkpt>
      <trkpt lat="47.53219" lon="6.38358">
        <ele>263.622</ele>
        <time>2019-09-30T09:01:34Z</time>
      </trkpt>
      <trkpt lat="47.53103" lon="6.38423">
        <ele>267.103</ele>
        <time>2019-09-30T09:02:04Z</time>
      </trkpt>
      <trkpt lat="47.52943" lon="6.38516">
        <ele>264.13</ele>
        <time>2019-09-30T09:02:34Z</time>
      </trkpt>
      <trkpt lat="47.52798" lon="6.38604">
        <ele>264.363</ele>
        <time>2019-09-30T09:03:04Z</time>
      </trkpt>
      <trkpt lat="47.52661" lon="6.38696">
        <ele>266.951</ele>
        <time>2019-09-30T09:03:34Z</time>
      </trkpt>
      <trkpt lat="47.52513" lon="6.38726">
        <ele>270.603</ele>
        <time>2019-09-30T09:04:04Z</time>
      </trkpt>
      <trkpt lat="47.52373" lon="6.38718">
        <ele>268.931</ele>
        <time>2019-09-30T09:04:34Z</time>
      </trkpt>
      <trkpt lat="47.52203" lon="6.38671">
        <ele>258.724</ele>
        <time>2019-09-30T09:05:04Z</time>
      </trkpt>
      <trkpt lat="47.52083" lon="6.38567">
        <ele>259.611</ele>
        <time>2019-09-30T09:05:34Z</time>
      </trkpt>
      <trkpt lat="47.51985" lon="6.38417">
        <ele>261.016</ele>
        <time>2019-09-30T09:06:04Z</time>
      </trkpt>
      <trkpt lat="47.51898" lon="6.3828">
        <ele>261.33</ele>
        <time>2019-09-30T09:06:34Z</time>
      </trkpt>
      <trkpt lat="47.51859" lon="6.38213">
        <ele>265.739</ele>
        <time>2019-09-30T09:07:07Z</time>
      </trkpt>
      <trkpt lat="47.51784" lon="6.3809">
        <ele>265.203</ele>
        <time>2019-09-30T09:07:37Z</time>
      </trkpt>
      <trkpt lat="47.51701" lon="6.37951">
        <ele>266.731</ele>
        <time>2019-09-30T09:08:07Z</time>
      </trkpt>
      <trkpt lat="47.51609" lon="6.37815">
        <ele>269.09</ele>
        <time>2019-09-30T09:08:37Z</time>
      </trkpt>
      <trkpt lat="47.51477" lon="6.37716">
        <ele>268.63</ele>
        <time>2019-09-30T09:09:07Z</time>
      </trkpt>
      <trkpt lat="47.51365" lon="6.37686">
        <ele>268.058</ele>
        <time>2019-09-30T09:09:37Z</time>
      </trkpt>
      <trkpt lat="47.51223" lon="6.37678">
        <ele>267.347</ele>
        <time>2019-09-30T09:10:10Z</time>
      </trkpt>
      <trkpt lat="47.51109" lon="6.37643">
        <ele>275.347</ele>
        <time>2019-09-30T09:10:40Z</time>
      </trkpt>
      <trkpt lat="47.50998" lon="6.37558">
        <ele>284.211</ele>
        <time>2019-09-30T09:11:10Z</time>
      </trkpt>
      <trkpt lat="47.50914" lon="6.37438">
        <ele>281.094</ele>
        <time>2019-09-30T09:11:40Z</time>
      </trkpt>
      <trkpt lat="47.50851" lon="6.37301">
        <ele>284.14</ele>
        <time>2019-09-30T09:12:10Z</time>
      </trkpt>
      <trkpt lat="47.5079" lon="6.37131">
        <ele>291.949</ele>
        <time>2019-09-30T09:12:40Z</time>
      </trkpt>
      <trkpt lat="47.50698" lon="6.36936">
        <ele>289.564</ele>
        <time>2019-09-30T09:13:10Z</time>
      </trkpt>
      <trkpt lat="47.50669" lon="6.36882">
        <ele>280.427</ele>
        <time>2019-09-30T09:14:10Z</time>
      </trkpt>
      <trkpt lat="47.50658" lon="6.36785">
        <ele>275.569</ele>
        <time>2019-09-30T09:14:40Z</time>
      </trkpt>
      <trkpt lat="47.50584" lon="6.36696">
        <ele>274.835</ele>
        <time>2019-09-30T09:15:10Z</time>
      </trkpt>
      <trkpt lat="47.50559" lon="6.36562">
        <ele>273.872</ele>
        <time>2019-09-30T09:15:40Z</time>
      </trkpt>
      <trkpt lat="47.50516" lon="6.36482">
        <ele>275.26</ele>
        <time>2019-09-30T09:16:10Z</time>
      </trkpt>
      <trkpt lat="47.50478" lon="6.3639">
        <ele>280.95</ele>
        <time>2019-09-30T09:16:40Z</time>
      </trkpt>
      <trkpt lat="47.50445" lon="6.36213">
        <ele>282.359</ele>
        <time>2019-09-30T09:17:10Z</time>
      </trkpt>
      <trkpt lat="47.50392" lon="6.3598">
        <ele>267.097</ele>
        <time>2019-09-30T09:17:40Z</time>
      </trkpt>
      <trkpt lat="47.50423" lon="6.35833">
        <ele>264.131</ele>
        <time>2019-09-30T09:18:10Z</time>
      </trkpt>
      <trkpt lat="47.50575" lon="6.3563">
        <ele>266.118</ele>
        <time>2019-09-30T09:18:40Z</time>
      </trkpt>
      <trkpt lat="47.50635" lon="6.35528">
        <ele>259.028</ele>
        <time>2019-09-30T09:19:10Z</time>
      </trkpt>
      <trkpt lat="47.50529" lon="6.35371">
        <ele>260.966</ele>
        <time>2019-09-30T09:19:40Z</time>
      </trkpt>
      <trkpt lat="47.50452" lon="6.35393">
        <ele>268.941</ele>
        <time>2019-09-30T09:20:10Z</time>
      </trkpt>
      <trkpt lat="47.50379" lon="6.35435">
        <ele>281.147</ele>
        <time>2019-09-30T09:20:40Z</time>
      </trkpt>
      <trkpt lat="47.50299" lon="6.35461">
        <ele>285.493</ele>
        <time>2019-09-30T09:21:10Z</time>
      </trkpt>
      <trkpt lat="47.50242" lon="6.35539">
        <ele>289.527</ele>
        <time>2019-09-30T09:21:40Z</time>
      </trkpt>
      <trkpt lat="47.50195" lon="6.35614">
        <ele>296.491</ele>
        <time>2019-09-30T09:22:10Z</time>
      </trkpt>
      <trkpt lat="47.50119" lon="6.35604">
        <ele>297.885</ele>
        <time>2019-09-30T09:22:40Z</time>
      </trkpt>
      <trkpt lat="47.5007" lon="6.35543">
        <ele>303.45</ele>
        <time>2019-09-30T09:23:10Z</time>
      </trkpt>
      <trkpt lat="47.5001" lon="6.35461">
        <ele>311.59</ele>
        <time>2019-09-30T09:23:40Z</time>
      </trkpt>
      <trkpt lat="47.49917" lon="6.35345">
        <ele>308.142</ele>
        <time>2019-09-30T09:24:10Z</time>
      </trkpt>
      <trkpt lat="47.49801" lon="6.35255">
        <ele>308.144</ele>
        <time>2019-09-30T09:24:40Z</time>
      </trkpt>
      <trkpt lat="47.49649" lon="6.35273">
        <ele>286.303</ele>
        <time>2019-09-30T09:25:10Z</time>
      </trkpt>
      <trkpt lat="47.4941" lon="6.3531">
        <ele>272.286</ele>
        <time>2019-09-30T09:25:40Z</time>
      </trkpt>
      <trkpt lat="47.49268" lon="6.35316">
        <ele>274.18</ele>
        <time>2019-09-30T09:26:10Z</time>
      </trkpt>
      <trkpt lat="47.49175" lon="6.35309">
        <ele>281.503</ele>
        <time>2019-09-30T09:26:40Z</time>
      </trkpt>
      <trkpt lat="47.49082" lon="6.35373">
        <ele>281.731</ele>
        <time>2019-09-30T09:27:10Z</time>
      </trkpt>
      <trkpt lat="47.48904" lon="6.35402">
        <ele>273.675</ele>
        <time>2019-09-30T09:27:40Z</time>
      </trkpt>
      <trkpt lat="47.48638" lon="6.355">
        <ele>262.804</ele>
        <time>2019-09-30T09:28:10Z</time>
      </trkpt>
      <trkpt lat="47.4835" lon="6.35465">
        <ele>253.306</ele>
        <time>2019-09-30T09:28:40Z</time>
      </trkpt>
      <trkpt lat="47.48196" lon="6.35587">
        <ele>250.276</ele>
        <time>2019-09-30T09:29:10Z</time>
      </trkpt>
      <trkpt lat="47.48069" lon="6.35506">
        <ele>259.642</ele>
        <time>2019-09-30T09:29:40Z</time>
      </trkpt>
      <trkpt lat="47.48023" lon="6.35593">
        <ele>260.046</ele>
        <time>2019-09-30T09:30:10Z</time>
      </trkpt>
      <trkpt lat="47.47961" lon="6.35757">
        <ele>260.34</ele>
        <time>2019-09-30T09:30:40Z</time>
      </trkpt>
      <trkpt lat="47.48008" lon="6.35956">
        <ele>256.731</ele>
        <time>2019-09-30T09:31:10Z</time>
      </trkpt>
      <trkpt lat="47.48001" lon="6.36177">
        <ele>254.757</ele>
        <time>2019-09-30T09:31:40Z</time>
      </trkpt>
      <trkpt lat="47.47995" lon="6.36276">
        <ele>254.966</ele>
        <time>2019-09-30T09:33:40Z</time>
      </trkpt>
      <trkpt lat="47.47986" lon="6.36465">
        <ele>253.546</ele>
        <time>2019-09-30T09:34:10Z</time>
      </trkpt>
      <trkpt lat="47.47965" lon="6.36639">
        <ele>260.482</ele>
        <time>2019-09-30T09:34:40Z</time>
      </trkpt>
      <trkpt lat="47.4792" lon="6.36809">
        <ele>262.937</ele>
        <time>2019-09-30T09:35:10Z</time>
      </trkpt>
      <trkpt lat="47.47884" lon="6.37011">
        <ele>260.321</ele>
        <time>2019-09-30T09:35:40Z</time>
      </trkpt>
      <trkpt lat="47.47966" lon="6.37233">
        <ele>259.054</ele>
        <time>2019-09-30T09:36:10Z</time>
      </trkpt>
      <trkpt lat="47.48044" lon="6.37432">
        <ele>260.281</ele>
        <time>2019-09-30T09:36:40Z</time>
      </trkpt>
      <trkpt lat="47.48121" lon="6.37633">
        <ele>262.68</ele>
        <time>2019-09-30T09:37:10Z</time>
      </trkpt>
      <trkpt lat="47.48141" lon="6.37842">
        <ele>264.557</ele>
        <time>2019-09-30T09:37:40Z</time>
      </trkpt>
      <trkpt lat="47.48131" lon="6.38041">
        <ele>272.767</ele>
        <time>2019-09-30T09:38:10Z</time>
      </trkpt>
      <trkpt lat="47.48135" lon="6.38233">
        <ele>269.089</ele>
        <time>2019-09-30T09:38:40Z</time>
      </trkpt>
      <trkpt lat="47.47978" lon="6.38114">
        <ele>268.874</ele>
        <time>2019-09-30T09:39:10Z</time>
      </trkpt>
      <trkpt lat="47.47853" lon="6.38093">
        <ele>266.777</ele>
        <time>2019-09-30T09:39:40Z</time>
      </trkpt>
      <trkpt lat="47.47782" lon="6.38096">
        <ele>267.838</ele>
        <time>2019-09-30T09:40:10Z</time>
      </trkpt>
      <trkpt lat="47.47713" lon="6.38102">
        <ele>273.04</ele>
        <time>2019-09-30T09:40:40Z</time>
      </trkpt>
      <trkpt lat="47.47651" lon="6.38106">
        <ele>279.204</ele>
        <time>2019-09-30T09:41:10Z</time>
      </trkpt>
      <trkpt lat="47.47589" lon="6.38108">
        <ele>285.063</ele>
        <time>2019-09-30T09:41:40Z</time>
      </trkpt>
      <trkpt lat="47.47515" lon="6.38111">
        <ele>292.163</ele>
        <time>2019-09-30T09:42:10Z</time>
      </trkpt>
      <trkpt lat="47.47432" lon="6.38088">
        <ele>291.533</ele>
        <time>2019-09-30T09:42:40Z</time>
      </trkpt>
      <trkpt lat="47.4733" lon="6.38044">
        <ele>292.859</ele>
        <time>2019-09-30T09:43:10Z</time>
      </trkpt>
      <trkpt lat="47.47189" lon="6.37983">
        <ele>291.888</ele>
        <time>2019-09-30T09:43:40Z</time>
      </trkpt>
      <trkpt lat="47.47029" lon="6.3796">
        <ele>291.871</ele>
        <time>2019-09-30T09:44:10Z</time>
      </trkpt>
      <trkpt lat="47.46892" lon="6.38005">
        <ele>288.761</ele>
        <time>2019-09-30T09:44:40Z</time>
      </trkpt>
      <trkpt lat="47.46813" lon="6.38046">
        <ele>288.504</ele>
        <time>2019-09-30T09:45:10Z</time>
      </trkpt>
      <trkpt lat="47.4675" lon="6.3807">
        <ele>295.314</ele>
        <time>2019-09-30T09:45:40Z</time>
      </trkpt>
      <trkpt lat="47.4669" lon="6.38067">
        <ele>300.643</ele>
        <time>2019-09-30T09:46:10Z</time>
      </trkpt>
      <trkpt lat="47.46631" lon="6.38039">
        <ele>306.321</ele>
        <time>2019-09-30T09:46:40Z</time>
      </trkpt>
      <trkpt lat="47.46573" lon="6.37986">
        <ele>307.909</ele>
        <time>2019-09-30T09:47:10Z</time>
      </trkpt>
      <trkpt lat="47.46518" lon="6.37927">
        <ele>309.837</ele>
        <time>2019-09-30T09:47:40Z</time>
      </trkpt>
      <trkpt lat="47.46449" lon="6.37875">
        <ele>313.319</ele>
        <time>2019-09-30T09:48:10Z</time>
      </trkpt>
      <trkpt lat="47.46384" lon="6.37827">
        <ele>316.25</ele>
        <time>2019-09-30T09:48:40Z</time>
      </trkpt>
      <trkpt lat="47.46319" lon="6.37784">
        <ele>318.349</ele>
        <time>2019-09-30T09:49:10Z</time>
      </trkpt>
      <trkpt lat="47.46249" lon="6.37748">
        <ele>323.564</ele>
        <time>2019-09-30T09:49:40Z</time>
      </trkpt>
      <trkpt lat="47.46168" lon="6.37707">
        <ele>327.031</ele>
        <time>2019-09-30T09:50:10Z</time>
      </trkpt>
      <trkpt lat="47.4606" lon="6.37629">
        <ele>323.466</ele>
        <time>2019-09-30T09:50:40Z</time>
      </trkpt>
      <trkpt lat="47.45963" lon="6.37557">
        <ele>323.8</ele>
        <time>2019-09-30T09:51:10Z</time>
      </trkpt>
      <trkpt lat="47.45897" lon="6.37483">
        <ele>326.12</ele>
        <time>2019-09-30T09:51:40Z</time>
      </trkpt>
      <trkpt lat="47.45844" lon="6.3741">
        <ele>332.565</ele>
        <time>2019-09-30T09:52:10Z</time>
      </trkpt>
      <trkpt lat="47.45786" lon="6.37335">
        <ele>338.274</ele>
        <time>2019-09-30T09:52:40Z</time>
      </trkpt>
      <trkpt lat="47.45713" lon="6.37272">
        <ele>343.004</ele>
        <time>2019-09-30T09:53:10Z</time>
      </trkpt>
      <trkpt lat="47.45586" lon="6.37239">
        <ele>339.715</ele>
        <time>2019-09-30T09:53:40Z</time>
      </trkpt>
      <trkpt lat="47.45458" lon="6.37267">
        <ele>335.856</ele>
        <time>2019-09-30T09:54:10Z</time>
      </trkpt>
      <trkpt lat="47.4536" lon="6.37294">
        <ele>337.26</ele>
        <time>2019-09-30T09:54:40Z</time>
      </trkpt>
      <trkpt lat="47.45287" lon="6.37275">
        <ele>344.104</ele>
        <time>2019-09-30T09:55:10Z</time>
      </trkpt>
      <trkpt lat="47.45231" lon="6.37235">
        <ele>353.649</ele>
        <time>2019-09-30T09:55:40Z</time>
      </trkpt>
      <trkpt lat="47.45178" lon="6.37196">
        <ele>358.56</ele>
        <time>2019-09-30T09:56:10Z</time>
      </trkpt>
      <trkpt lat="47.45116" lon="6.37172">
        <ele>360.498</ele>
        <time>2019-09-30T09:56:40Z</time>
      </trkpt>
      <trkpt lat="47.45042" lon="6.37182">
        <ele>354.268</ele>
        <time>2019-09-30T09:57:10Z</time>
      </trkpt>
      <trkpt lat="47.44955" lon="6.37256">
        <ele>351.304</ele>
        <time>2019-09-30T09:57:40Z</time>
      </trkpt>
      <trkpt lat="47.44858" lon="6.3738">
        <ele>356.768</ele>
        <time>2019-09-30T09:58:10Z</time>
      </trkpt>
      <trkpt lat="47.44731" lon="6.37437">
        <ele>355.412</ele>
        <time>2019-09-30T09:58:40Z</time>
      </trkpt>
      <trkpt lat="47.44567" lon="6.3747">
        <ele>357.904</ele>
        <time>2019-09-30T09:59:10Z</time>
      </trkpt>
      <trkpt lat="47.44413" lon="6.37542">
        <ele>354.418</ele>
        <time>2019-09-30T09:59:40Z</time>
      </trkpt>
      <trkpt lat="47.44315" lon="6.37566">
        <ele>360.01</ele>
        <time>2019-09-30T10:00:10Z</time>
      </trkpt>
      <trkpt lat="47.44217" lon="6.37584">
        <ele>361.152</ele>
        <time>2019-09-30T10:00:40Z</time>
      </trkpt>
      <trkpt lat="47.44098" lon="6.37591">
        <ele>363.939</ele>
        <time>2019-09-30T10:01:10Z</time>
      </trkpt>
      <trkpt lat="47.43884" lon="6.3748">
        <ele>356.091</ele>
        <time>2019-09-30T10:01:40Z</time>
      </trkpt>
      <trkpt lat="47.43654" lon="6.37351">
        <ele>347.029</ele>
        <time>2019-09-30T10:02:10Z</time>
      </trkpt>
      <trkpt lat="47.43527" lon="6.37346">
        <ele>349.417</ele>
        <time>2019-09-30T10:02:40Z</time>
      </trkpt>
      <trkpt lat="47.4342" lon="6.37382">
        <ele>349.961</ele>
        <time>2019-09-30T10:03:10Z</time>
      </trkpt>
      <trkpt lat="47.43299" lon="6.37401">
        <ele>351.219</ele>
        <time>2019-09-30T10:03:40Z</time>
      </trkpt>
      <trkpt lat="47.43179" lon="6.37422">
        <ele>351.283</ele>
        <time>2019-09-30T10:04:10Z</time>
      </trkpt>
      <trkpt lat="47.43056" lon="6.3746">
        <ele>354.581</ele>
        <time>2019-09-30T10:04:40Z</time>
      </trkpt>
      <trkpt lat="47.4297" lon="6.37486">
        <ele>359.869</ele>
        <time>2019-09-30T10:05:10Z</time>
      </trkpt>
      <trkpt lat="47.42899" lon="6.37514">
        <ele>364.081</ele>
        <time>2019-09-30T10:05:40Z</time>
      </trkpt>
      <trkpt lat="47.4283" lon="6.37568">
        <ele>369.295</ele>
        <time>2019-09-30T10:06:10Z</time>
      </trkpt>
      <trkpt lat="47.42756" lon="6.37608">
        <ele>370.968</ele>
        <time>2019-09-30T10:06:40Z</time>
      </trkpt>
      <trkpt lat="47.42686" lon="6.3763">
        <ele>374.908</ele>
        <time>2019-09-30T10:07:10Z</time>
      </trkpt>
      <trkpt lat="47.42619" lon="6.37649">
        <ele>379.659</ele>
        <time>2019-09-30T10:07:40Z</time>
      </trkpt>
      <trkpt lat="47.42552" lon="6.37668">
        <ele>381.199</ele>
        <time>2019-09-30T10:08:10Z</time>
      </trkpt>
      <trkpt lat="47.4249" lon="6.37685">
        <ele>384.656</ele>
        <time>2019-09-30T10:08:40Z</time>
      </trkpt>
      <trkpt lat="47.42429" lon="6.37702">
        <ele>391.418</ele>
        <time>2019-09-30T10:09:10Z</time>
      </trkpt>
      <trkpt lat="47.42358" lon="6.37703">
        <ele>398.179</ele>
        <time>2019-09-30T10:09:40Z</time>
      </trkpt>
      <trkpt lat="47.42291" lon="6.37699">
        <ele>402.151</ele>
        <time>2019-09-30T10:10:10Z</time>
      </trkpt>
      <trkpt lat="47.42222" lon="6.37692">
        <ele>399.946</ele>
        <time>2019-09-30T10:10:40Z</time>
      </trkpt>
      <trkpt lat="47.42156" lon="6.37694">
        <ele>402.299</ele>
        <time>2019-09-30T10:11:10Z</time>
      </trkpt>
      <trkpt lat="47.42089" lon="6.37692">
        <ele>409.462</ele>
        <time>2019-09-30T10:11:40Z</time>
      </trkpt>
      <trkpt lat="47.4202" lon="6.37692">
        <ele>411.332</ele>
        <time>2019-09-30T10:12:10Z</time>
      </trkpt>
      <trkpt lat="47.41954" lon="6.3769">
        <ele>412.101</ele>
        <time>2019-09-30T10:12:40Z</time>
      </trkpt>
      <trkpt lat="47.41882" lon="6.37685">
        <ele>412.924</ele>
        <time>2019-09-30T10:13:10Z</time>
      </trkpt>
      <trkpt lat="47.41805" lon="6.37686">
        <ele>414.632</ele>
        <time>2019-09-30T10:13:40Z</time>
      </trkpt>
      <trkpt lat="47.41714" lon="6.37682">
        <ele>417.066</ele>
        <time>2019-09-30T10:14:10Z</time>
      </trkpt>
      <trkpt lat="47.41586" lon="6.37681">
        <ele>417.695</ele>
        <time>2019-09-30T10:14:40Z</time>
      </trkpt>
      <trkpt lat="47.41451" lon="6.37681">
        <ele>416.108</ele>
        <time>2019-09-30T10:15:10Z</time>
      </trkpt>
      <trkpt lat="47.41318" lon="6.37678">
        <ele>415.24</ele>
        <time>2019-09-30T10:15:40Z</time>
      </trkpt>
      <trkpt lat="47.41189" lon="6.37678">
        <ele>416.561</ele>
        <time>2019-09-30T10:16:10Z</time>
      </trkpt>
      <trkpt lat="47.41063" lon="6.37675">
        <ele>417.347</ele>
        <time>2019-09-30T10:16:40Z</time>
      </trkpt>
      <trkpt lat="47.40939" lon="6.37673">
        <ele>417.659</ele>
        <time>2019-09-30T10:17:10Z</time>
      </trkpt>
      <trkpt lat="47.40823" lon="6.37669">
        <ele>419.909</ele>
        <time>2019-09-30T10:17:40Z</time>
      </trkpt>
      <trkpt lat="47.40723" lon="6.37669">
        <ele>423.581</ele>
        <time>2019-09-30T10:18:10Z</time>
      </trkpt>
      <trkpt lat="47.40633" lon="6.37668">
        <ele>428.263</ele>
        <time>2019-09-30T10:18:40Z</time>
      </trkpt>
      <trkpt lat="47.40549" lon="6.37665">
        <ele>431.397</ele>
        <time>2019-09-30T10:19:10Z</time>
      </trkpt>
      <trkpt lat="47.40458" lon="6.37663">
        <ele>435.672</ele>
        <time>2019-09-30T10:19:40Z</time>
      </trkpt>
      <trkpt lat="47.40358" lon="6.3766">
        <ele>435.231</ele>
        <time>2019-09-30T10:20:10Z</time>
      </trkpt>
      <trkpt lat="47.40258" lon="6.3766">
        <ele>433.857</ele>
        <time>2019-09-30T10:20:40Z</time>
      </trkpt>
      <trkpt lat="47.40159" lon="6.37659">
        <ele>436.894</ele>
        <time>2019-09-30T10:21:10Z</time>
      </trkpt>
      <trkpt lat="47.40061" lon="6.37657">
        <ele>440.14</ele>
        <time>2019-09-30T10:21:40Z</time>
      </trkpt>
      <trkpt lat="47.39956" lon="6.37655">
        <ele>438.286</ele>
        <time>2019-09-30T10:22:10Z</time>
      </trkpt>
      <trkpt lat="47.39851" lon="6.37655">
        <ele>440.243</ele>
        <time>2019-09-30T10:22:40Z</time>
      </trkpt>
      <trkpt lat="47.39721" lon="6.37663">
        <ele>441.7</ele>
        <time>2019-09-30T10:23:10Z</time>
      </trkpt>
      <trkpt lat="47.39567" lon="6.37673">
        <ele>440.28</ele>
        <time>2019-09-30T10:23:40Z</time>
      </trkpt>
      <trkpt lat="47.39383" lon="6.37683">
        <ele>437.936</ele>
        <time>2019-09-30T10:24:13Z</time>
      </trkpt>
      <trkpt lat="47.39244" lon="6.37694">
        <ele>439.148</ele>
        <time>2019-09-30T10:24:43Z</time>
      </trkpt>
      <trkpt lat="47.39124" lon="6.377">
        <ele>440.642</ele>
        <time>2019-09-30T10:25:13Z</time>
      </trkpt>
      <trkpt lat="47.38994" lon="6.3771">
        <ele>441.207</ele>
        <time>2019-09-30T10:25:43Z</time>
      </trkpt>
      <trkpt lat="47.38859" lon="6.37722">
        <ele>444.047</ele>
        <time>2019-09-30T10:26:13Z</time>
      </trkpt>
      <trkpt lat="47.3869" lon="6.3773">
        <ele>442.85</ele>
        <time>2019-09-30T10:26:43Z</time>
      </trkpt>
      <trkpt lat="47.38491" lon="6.37742">
        <ele>437.538</ele>
        <time>2019-09-30T10:27:13Z</time>
      </trkpt>
      <trkpt lat="47.38288" lon="6.37754">
        <ele>430.821</ele>
        <time>2019-09-30T10:27:43Z</time>
      </trkpt>
      <trkpt lat="47.38061" lon="6.37771">
        <ele>428.05</ele>
        <time>2019-09-30T10:28:13Z</time>
      </trkpt>
      <trkpt lat="47.37872" lon="6.37783">
        <ele>426.878</ele>
        <time>2019-09-30T10:28:43Z</time>
      </trkpt>
      <trkpt lat="47.37742" lon="6.37787">
        <ele>431.345</ele>
        <time>2019-09-30T10:29:13Z</time>
      </trkpt>
      <trkpt lat="47.37611" lon="6.37798">
        <ele>435.37</ele>
        <time>2019-09-30T10:29:43Z</time>
      </trkpt>
      <trkpt lat="47.37443" lon="6.37819">
        <ele>430.863</ele>
        <time>2019-09-30T10:30:13Z</time>
      </trkpt>
      <trkpt lat="47.37215" lon="6.37822">
        <ele>422.776</ele>
        <time>2019-09-30T10:30:43Z</time>
      </trkpt>
      <trkpt lat="47.37024" lon="6.37825">
        <ele>423.657</ele>
        <time>2019-09-30T10:31:13Z</time>
      </trkpt>
      <trkpt lat="47.36898" lon="6.37832">
        <ele>428.053</ele>
        <time>2019-09-30T10:31:43Z</time>
      </trkpt>
      <trkpt lat="47.36816" lon="6.3784">
        <ele>430.149</ele>
        <time>2019-09-30T10:32:13Z</time>
      </trkpt>
      <trkpt lat="47.36739" lon="6.37845">
        <ele>433.178</ele>
        <time>2019-09-30T10:32:43Z</time>
      </trkpt>
      <trkpt lat="47.36642" lon="6.37853">
        <ele>446.068</ele>
        <time>2019-09-30T10:33:13Z</time>
      </trkpt>
      <trkpt lat="47.36461" lon="6.37792">
        <ele>429.059</ele>
        <time>2019-09-30T10:33:43Z</time>
      </trkpt>
      <trkpt lat="47.36391" lon="6.37729">
        <ele>421.597</ele>
        <time>2019-09-30T10:35:58Z</time>
      </trkpt>
      <trkpt lat="47.36205" lon="6.37523">
        <ele>410.274</ele>
        <time>2019-09-30T10:36:28Z</time>
      </trkpt>
      <trkpt lat="47.35885" lon="6.37154">
        <ele>378.24</ele>
        <time>2019-09-30T10:36:58Z</time>
      </trkpt>
      <trkpt lat="47.3561" lon="6.36736">
        <ele>349.27</ele>
        <time>2019-09-30T10:37:28Z</time>
      </trkpt>
      <trkpt lat="47.35271" lon="6.36539">
        <ele>329.867</ele>
        <time>2019-09-30T10:37:58Z</time>
      </trkpt>
      <trkpt lat="47.35183" lon="6.36903">
        <ele>308.764</ele>
        <time>2019-09-30T10:38:28Z</time>
      </trkpt>
      <trkpt lat="47.35095" lon="6.36723">
        <ele>296.907</ele>
        <time>2019-09-30T10:38:58Z</time>
      </trkpt>
      <trkpt lat="47.35053" lon="6.36327">
        <ele>292.358</ele>
        <time>2019-09-30T10:39:28Z</time>
      </trkpt>
      <trkpt lat="47.34964" lon="6.36171">
        <ele>282.913</ele>
        <time>2019-09-30T10:39:58Z</time>
      </trkpt>
      <trkpt lat="47.34891" lon="6.36122">
        <ele>279.523</ele>
        <time>2019-09-30T10:41:31Z</time>
      </trkpt>
      <trkpt lat="47.34706" lon="6.36098">
        <ele>275.963</ele>
        <time>2019-09-30T10:42:01Z</time>
      </trkpt>
      <trkpt lat="47.345" lon="6.36123">
        <ele>264.611</ele>
        <time>2019-09-30T10:42:31Z</time>
      </trkpt>
      <trkpt lat="47.3442" lon="6.36001">
        <ele>262.578</ele>
        <time>2019-09-30T10:43:01Z</time>
      </trkpt>
      <trkpt lat="47.34392" lon="6.36005">
        <ele>259.339</ele>
        <time>2019-09-30T10:44:34Z</time>
      </trkpt>
      <trkpt lat="47.34386" lon="6.35934">
        <ele>264.616</ele>
        <time>2019-09-30T11:22:49Z</time>
      </trkpt>
      <trkpt lat="47.34294" lon="6.35843">
        <ele>269.623</ele>
        <time>2019-09-30T11:23:19Z</time>
      </trkpt>
      <trkpt lat="47.34183" lon="6.35693">
        <ele>270.128</ele>
        <time>2019-09-30T11:23:49Z</time>
      </trkpt>
      <trkpt lat="47.34108" lon="6.35516">
        <ele>263.509</ele>
        <time>2019-09-30T11:24:19Z</time>
      </trkpt>
      <trkpt lat="47.34017" lon="6.3537">
        <ele>263.32</ele>
        <time>2019-09-30T11:24:49Z</time>
      </trkpt>
      <trkpt lat="47.33924" lon="6.35263">
        <ele>269.351</ele>
        <time>2019-09-30T11:25:19Z</time>
      </trkpt>
      <trkpt lat="47.33771" lon="6.35132">
        <ele>271.284</ele>
        <time>2019-09-30T11:25:49Z</time>
      </trkpt>
      <trkpt lat="47.33658" lon="6.35024">
        <ele>273.03</ele>
        <time>2019-09-30T11:26:19Z</time>
      </trkpt>
      <trkpt lat="47.33553" lon="6.34877">
        <ele>273.151</ele>
        <time>2019-09-30T11:26:49Z</time>
      </trkpt>
      <trkpt lat="47.33559" lon="6.34835">
        <ele>271.991</ele>
        <time>2019-09-30T11:27:40Z</time>
      </trkpt>
      <trkpt lat="47.3358" lon="6.34796">
        <ele>270.795</ele>
        <time>2019-09-30T11:28:22Z</time>
      </trkpt>
      <trkpt lat="47.33642" lon="6.3471">
        <ele>272.086</ele>
        <time>2019-09-30T11:28:52Z</time>
      </trkpt>
      <trkpt lat="47.33822" lon="6.34529">
        <ele>266.171</ele>
        <time>2019-09-30T11:29:22Z</time>
      </trkpt>
      <trkpt lat="47.33958" lon="6.34317">
        <ele>270.736</ele>
        <time>2019-09-30T11:29:52Z</time>
      </trkpt>
      <trkpt lat="47.34042" lon="6.34142">
        <ele>273.532</ele>
        <time>2019-09-30T11:30:22Z</time>
      </trkpt>
      <trkpt lat="47.341" lon="6.33933">
        <ele>272.374</ele>
        <time>2019-09-30T11:30:52Z</time>
      </trkpt>
      <trkpt lat="47.34129" lon="6.33701">
        <ele>269.328</ele>
        <time>2019-09-30T11:31:22Z</time>
      </trkpt>
      <trkpt lat="47.34181" lon="6.3346">
        <ele>258.308</ele>
        <time>2019-09-30T11:31:52Z</time>
      </trkpt>
      <trkpt lat="47.34225" lon="6.33246">
        <ele>257.929</ele>
        <time>2019-09-30T11:32:22Z</time>
      </trkpt>
      <trkpt lat="47.3427" lon="6.33019">
        <ele>262.6</ele>
        <time>2019-09-30T11:32:52Z</time>
      </trkpt>
      <trkpt lat="47.34319" lon="6.32804">
        <ele>261.576</ele>
        <time>2019-09-30T11:33:22Z</time>
      </trkpt>
      <trkpt lat="47.34352" lon="6.32577">
        <ele>266.945</ele>
        <time>2019-09-30T11:33:52Z</time>
      </trkpt>
      <trkpt lat="47.34324" lon="6.32359">
        <ele>270.688</ele>
        <time>2019-09-30T11:34:22Z</time>
      </trkpt>
      <trkpt lat="47.34277" lon="6.32132">
        <ele>270.042</ele>
        <time>2019-09-30T11:34:52Z</time>
      </trkpt>
      <trkpt lat="47.34182" lon="6.31937">
        <ele>270.401</ele>
        <time>2019-09-30T11:35:22Z</time>
      </trkpt>
      <trkpt lat="47.34075" lon="6.31751">
        <ele>264.467</ele>
        <time>2019-09-30T11:35:52Z</time>
      </trkpt>
      <trkpt lat="47.33942" lon="6.31603">
        <ele>262.822</ele>
        <time>2019-09-30T11:36:22Z</time>
      </trkpt>
      <trkpt lat="47.33798" lon="6.31511">
        <ele>262.713</ele>
        <time>2019-09-30T11:36:52Z</time>
      </trkpt>
      <trkpt lat="47.33646" lon="6.31446">
        <ele>262.807</ele>
        <time>2019-09-30T11:37:22Z</time>
      </trkpt>
      <trkpt lat="47.33497" lon="6.3139">
        <ele>259.858</ele>
        <time>2019-09-30T11:37:52Z</time>
      </trkpt>
      <trkpt lat="47.3335" lon="6.31339">
        <ele>260.524</ele>
        <time>2019-09-30T11:38:22Z</time>
      </trkpt>
      <trkpt lat="47.33193" lon="6.31272">
        <ele>259.94</ele>
        <time>2019-09-30T11:38:52Z</time>
      </trkpt>
      <trkpt lat="47.33064" lon="6.3114">
        <ele>261.948</ele>
        <time>2019-09-30T11:39:22Z</time>
      </trkpt>
      <trkpt lat="47.32995" lon="6.30943">
        <ele>267.367</ele>
        <time>2019-09-30T11:39:52Z</time>
      </trkpt>
      <trkpt lat="47.3298" lon="6.30721">
        <ele>266.674</ele>
        <time>2019-09-30T11:40:22Z</time>
      </trkpt>
      <trkpt lat="47.32973" lon="6.30495">
        <ele>262.382</ele>
        <time>2019-09-30T11:40:52Z</time>
      </trkpt>
      <trkpt lat="47.32989" lon="6.30233">
        <ele>255.96</ele>
        <time>2019-09-30T11:41:22Z</time>
      </trkpt>
      <trkpt lat="47.33014" lon="6.30036">
        <ele>254.099</ele>
        <time>2019-09-30T11:41:52Z</time>
      </trkpt>
      <trkpt lat="47.33022" lon="6.29828">
        <ele>255.969</ele>
        <time>2019-09-30T11:42:22Z</time>
      </trkpt>
      <trkpt lat="47.33015" lon="6.29612">
        <ele>259.602</ele>
        <time>2019-09-30T11:42:52Z</time>
      </trkpt>
      <trkpt lat="47.32987" lon="6.29429">
        <ele>266.316</ele>
        <time>2019-09-30T11:43:22Z</time>
      </trkpt>
      <trkpt lat="47.32909" lon="6.29244">
        <ele>269.686</ele>
        <time>2019-09-30T11:43:52Z</time>
      </trkpt>
      <trkpt lat="47.32819" lon="6.29056">
        <ele>265.878</ele>
        <time>2019-09-30T11:44:22Z</time>
      </trkpt>
      <trkpt lat="47.32715" lon="6.28879">
        <ele>262.789</ele>
        <time>2019-09-30T11:44:52Z</time>
      </trkpt>
      <trkpt lat="47.32602" lon="6.28737">
        <ele>262.197</ele>
        <time>2019-09-30T11:45:22Z</time>
      </trkpt>
      <trkpt lat="47.32489" lon="6.28616">
        <ele>259.577</ele>
        <time>2019-09-30T11:45:52Z</time>
      </trkpt>
      <trkpt lat="47.32363" lon="6.28499">
        <ele>258.379</ele>
        <time>2019-09-30T11:46:22Z</time>
      </trkpt>
      <trkpt lat="47.32241" lon="6.28344">
        <ele>261.249</ele>
        <time>2019-09-30T11:46:52Z</time>
      </trkpt>
      <trkpt lat="47.3216" lon="6.2815">
        <ele>258.951</ele>
        <time>2019-09-30T11:47:22Z</time>
      </trkpt>
      <trkpt lat="47.32133" lon="6.2795">
        <ele>258.54</ele>
        <time>2019-09-30T11:47:52Z</time>
      </trkpt>
      <trkpt lat="47.32148" lon="6.27712">
        <ele>258.465</ele>
        <time>2019-09-30T11:48:22Z</time>
      </trkpt>
      <trkpt lat="47.32124" lon="6.27493">
        <ele>256.552</ele>
        <time>2019-09-30T11:48:52Z</time>
      </trkpt>
      <trkpt lat="47.32094" lon="6.27267">
        <ele>254.038</ele>
        <time>2019-09-30T11:49:22Z</time>
      </trkpt>
      <trkpt lat="47.32083" lon="6.27028">
        <ele>254.155</ele>
        <time>2019-09-30T11:49:52Z</time>
      </trkpt>
      <trkpt lat="47.32087" lon="6.26786">
        <ele>255.376</ele>
        <time>2019-09-30T11:50:22Z</time>
      </trkpt>
      <trkpt lat="47.32025" lon="6.26566">
        <ele>259.872</ele>
        <time>2019-09-30T11:50:52Z</time>
      </trkpt>
      <trkpt lat="47.31881" lon="6.26455">
        <ele>257.003</ele>
        <time>2019-09-30T11:51:22Z</time>
      </trkpt>
      <trkpt lat="47.31725" lon="6.26363">
        <ele>255.031</ele>
        <time>2019-09-30T11:51:52Z</time>
      </trkpt>
      <trkpt lat="47.3157" lon="6.26261">
        <ele>253.599</ele>
        <time>2019-09-30T11:52:22Z</time>
      </trkpt>
      <trkpt lat="47.31431" lon="6.26153">
        <ele>252.242</ele>
        <time>2019-09-30T11:52:52Z</time>
      </trkpt>
      <trkpt lat="47.31296" lon="6.26064">
        <ele>250.926</ele>
        <time>2019-09-30T11:53:22Z</time>
      </trkpt>
      <trkpt lat="47.31161" lon="6.25963">
        <ele>251.841</ele>
        <time>2019-09-30T11:53:52Z</time>
      </trkpt>
      <trkpt lat="47.31074" lon="6.25803">
        <ele>257.235</ele>
        <time>2019-09-30T11:54:22Z</time>
      </trkpt>
      <trkpt lat="47.30998" lon="6.25597">
        <ele>254.698</ele>
        <time>2019-09-30T11:54:52Z</time>
      </trkpt>
      <trkpt lat="47.30965" lon="6.25389">
        <ele>257.115</ele>
        <time>2019-09-30T11:55:22Z</time>
      </trkpt>
      <trkpt lat="47.30933" lon="6.25162">
        <ele>252.421</ele>
        <time>2019-09-30T11:55:52Z</time>
      </trkpt>
      <trkpt lat="47.30903" lon="6.24966">
        <ele>252.676</ele>
        <time>2019-09-30T11:56:22Z</time>
      </trkpt>
      <trkpt lat="47.30868" lon="6.24744">
        <ele>248.462</ele>
        <time>2019-09-30T11:56:52Z</time>
      </trkpt>
      <trkpt lat="47.30839" lon="6.24539">
        <ele>249.519</ele>
        <time>2019-09-30T11:57:22Z</time>
      </trkpt>
      <trkpt lat="47.30792" lon="6.24336">
        <ele>248.838</ele>
        <time>2019-09-30T11:57:52Z</time>
      </trkpt>
      <trkpt lat="47.30741" lon="6.24145">
        <ele>249.773</ele>
        <time>2019-09-30T11:58:22Z</time>
      </trkpt>
      <trkpt lat="47.30696" lon="6.23941">
        <ele>249.546</ele>
        <time>2019-09-30T11:58:52Z</time>
      </trkpt>
      <trkpt lat="47.30622" lon="6.23748">
        <ele>250.104</ele>
        <time>2019-09-30T11:59:22Z</time>
      </trkpt>
      <trkpt lat="47.30499" lon="6.23629">
        <ele>251.446</ele>
        <time>2019-09-30T11:59:52Z</time>
      </trkpt>
      <trkpt lat="47.30365" lon="6.23559">
        <ele>252.486</ele>
        <time>2019-09-30T12:00:22Z</time>
      </trkpt>
      <trkpt lat="47.30223" lon="6.23521">
        <ele>250.716</ele>
        <time>2019-09-30T12:00:52Z</time>
      </trkpt>
      <trkpt lat="47.30092" lon="6.2353">
        <ele>247.737</ele>
        <time>2019-09-30T12:01:22Z</time>
      </trkpt>
      <trkpt lat="47.30005" lon="6.23505">
        <ele>254.9</ele>
        <time>2019-09-30T12:01:52Z</time>
      </trkpt>
      <trkpt lat="47.29942" lon="6.23433">
        <ele>260.029</ele>
        <time>2019-09-30T12:02:22Z</time>
      </trkpt>
      <trkpt lat="47.29848" lon="6.23413">
        <ele>260.514</ele>
        <time>2019-09-30T12:02:52Z</time>
      </trkpt>
      <trkpt lat="47.29717" lon="6.23304">
        <ele>253.587</ele>
        <time>2019-09-30T12:03:22Z</time>
      </trkpt>
      <trkpt lat="47.29595" lon="6.23216">
        <ele>248.194</ele>
        <time>2019-09-30T12:03:52Z</time>
      </trkpt>
      <trkpt lat="47.2961" lon="6.22971">
        <ele>249.099</ele>
        <time>2019-09-30T12:04:22Z</time>
      </trkpt>
      <trkpt lat="47.29681" lon="6.22792">
        <ele>253.522</ele>
        <time>2019-09-30T12:04:52Z</time>
      </trkpt>
      <trkpt lat="47.29762" lon="6.22601">
        <ele>256.773</ele>
        <time>2019-09-30T12:05:22Z</time>
      </trkpt>
      <trkpt lat="47.29824" lon="6.22383">
        <ele>258.876</ele>
        <time>2019-09-30T12:05:52Z</time>
      </trkpt>
      <trkpt lat="47.29874" lon="6.22169">
        <ele>251.559</ele>
        <time>2019-09-30T12:06:22Z</time>
      </trkpt>
      <trkpt lat="47.29965" lon="6.22014">
        <ele>252.412</ele>
        <time>2019-09-30T12:06:52Z</time>
      </trkpt>
      <trkpt lat="47.30074" lon="6.21846">
        <ele>255.608</ele>
        <time>2019-09-30T12:07:22Z</time>
      </trkpt>
      <trkpt lat="47.30174" lon="6.21677">
        <ele>261.71</ele>
        <time>2019-09-30T12:07:52Z</time>
      </trkpt>
      <trkpt lat="47.30284" lon="6.21498">
        <ele>261.35</ele>
        <time>2019-09-30T12:08:22Z</time>
      </trkpt>
      <trkpt lat="47.30346" lon="6.21307">
        <ele>264.26</ele>
        <time>2019-09-30T12:08:52Z</time>
      </trkpt>
      <trkpt lat="47.30388" lon="6.21094">
        <ele>266.116</ele>
        <time>2019-09-30T12:09:22Z</time>
      </trkpt>
      <trkpt lat="47.30389" lon="6.20996">
        <ele>262.515</ele>
        <time>2019-09-30T12:12:10Z</time>
      </trkpt>
      <trkpt lat="47.30353" lon="6.20825">
        <ele>254.06</ele>
        <time>2019-09-30T12:12:40Z</time>
      </trkpt>
      <trkpt lat="47.30281" lon="6.20724">
        <ele>256.382</ele>
        <time>2019-09-30T12:13:10Z</time>
      </trkpt>
      <trkpt lat="47.30199" lon="6.20653">
        <ele>259.36</ele>
        <time>2019-09-30T12:13:40Z</time>
      </trkpt>
      <trkpt lat="47.29996" lon="6.20567">
        <ele>249.658</ele>
        <time>2019-09-30T12:14:10Z</time>
      </trkpt>
      <trkpt lat="47.29842" lon="6.20506">
        <ele>247.825</ele>
        <time>2019-09-30T12:14:40Z</time>
      </trkpt>
      <trkpt lat="47.29694" lon="6.20456">
        <ele>248.031</ele>
        <time>2019-09-30T12:15:10Z</time>
      </trkpt>
      <trkpt lat="47.29552" lon="6.20426">
        <ele>253.536</ele>
        <time>2019-09-30T12:15:40Z</time>
      </trkpt>
      <trkpt lat="47.29404" lon="6.20375">
        <ele>253.4</ele>
        <time>2019-09-30T12:16:10Z</time>
      </trkpt>
      <trkpt lat="47.29261" lon="6.20298">
        <ele>254.1</ele>
        <time>2019-09-30T12:16:40Z</time>
      </trkpt>
      <trkpt lat="47.29159" lon="6.20266">
        <ele>253.341</ele>
        <time>2019-09-30T12:17:10Z</time>
      </trkpt>
      <trkpt lat="47.29052" lon="6.20206">
        <ele>254.856</ele>
        <time>2019-09-30T12:17:40Z</time>
      </trkpt>
      <trkpt lat="47.29008" lon="6.20065">
        <ele>256.329</ele>
        <time>2019-09-30T12:18:10Z</time>
      </trkpt>
      <trkpt lat="47.28948" lon="6.19878">
        <ele>250.538</ele>
        <time>2019-09-30T12:18:40Z</time>
      </trkpt>
      <trkpt lat="47.28913" lon="6.19661">
        <ele>244.937</ele>
        <time>2019-09-30T12:19:10Z</time>
      </trkpt>
      <trkpt lat="47.28892" lon="6.19438">
        <ele>240.052</ele>
        <time>2019-09-30T12:19:40Z</time>
      </trkpt>
      <trkpt lat="47.28879" lon="6.19218">
        <ele>243.401</ele>
        <time>2019-09-30T12:20:10Z</time>
      </trkpt>
      <trkpt lat="47.2888" lon="6.18996">
        <ele>240.445</ele>
        <time>2019-09-30T12:20:40Z</time>
      </trkpt>
      <trkpt lat="47.28913" lon="6.1879">
        <ele>243.206</ele>
        <time>2019-09-30T12:21:10Z</time>
      </trkpt>
      <trkpt lat="47.28958" lon="6.18598">
        <ele>250.468</ele>
        <time>2019-09-30T12:21:40Z</time>
      </trkpt>
      <trkpt lat="47.29012" lon="6.18394">
        <ele>252.794</ele>
        <time>2019-09-30T12:22:10Z</time>
      </trkpt>
      <trkpt lat="47.29066" lon="6.18189">
        <ele>252.139</ele>
        <time>2019-09-30T12:22:40Z</time>
      </trkpt>
      <trkpt lat="47.29077" lon="6.17966">
        <ele>250.982</ele>
        <time>2019-09-30T12:23:10Z</time>
      </trkpt>
      <trkpt lat="47.29048" lon="6.17756">
        <ele>251.635</ele>
        <time>2019-09-30T12:23:40Z</time>
      </trkpt>
      <trkpt lat="47.29004" lon="6.17571">
        <ele>251.943</ele>
        <time>2019-09-30T12:24:10Z</time>
      </trkpt>
      <trkpt lat="47.28963" lon="6.17373">
        <ele>245.778</ele>
        <time>2019-09-30T12:24:40Z</time>
      </trkpt>
      <trkpt lat="47.28949" lon="6.17157">
        <ele>244.24</ele>
        <time>2019-09-30T12:25:10Z</time>
      </trkpt>
      <trkpt lat="47.28932" lon="6.16949">
        <ele>245.956</ele>
        <time>2019-09-30T12:25:40Z</time>
      </trkpt>
      <trkpt lat="47.28918" lon="6.16742">
        <ele>246.851</ele>
        <time>2019-09-30T12:26:10Z</time>
      </trkpt>
      <trkpt lat="47.28909" lon="6.16534">
        <ele>247.568</ele>
        <time>2019-09-30T12:26:40Z</time>
      </trkpt>
      <trkpt lat="47.28888" lon="6.1631">
        <ele>247.502</ele>
        <time>2019-09-30T12:27:10Z</time>
      </trkpt>
      <trkpt lat="47.28861" lon="6.16099">
        <ele>244.933</ele>
        <time>2019-09-30T12:27:40Z</time>
      </trkpt>
      <trkpt lat="47.28839" lon="6.15889">
        <ele>247.628</ele>
        <time>2019-09-30T12:28:10Z</time>
      </trkpt>
      <trkpt lat="47.28808" lon="6.15682">
        <ele>248.429</ele>
        <time>2019-09-30T12:28:40Z</time>
      </trkpt>
      <trkpt lat="47.28763" lon="6.15469">
        <ele>248.077</ele>
        <time>2019-09-30T12:29:10Z</time>
      </trkpt>
      <trkpt lat="47.28721" lon="6.15257">
        <ele>248.92</ele>
        <time>2019-09-30T12:29:40Z</time>
      </trkpt>
      <trkpt lat="47.28664" lon="6.15062">
        <ele>248.57</ele>
        <time>2019-09-30T12:30:10Z</time>
      </trkpt>
      <trkpt lat="47.28592" lon="6.1488">
        <ele>247.998</ele>
        <time>2019-09-30T12:30:40Z</time>
      </trkpt>
      <trkpt lat="47.28526" lon="6.14675">
        <ele>250.004</ele>
        <time>2019-09-30T12:31:10Z</time>
      </trkpt>
      <trkpt lat="47.28487" lon="6.14449">
        <ele>249.384</ele>
        <time>2019-09-30T12:31:40Z</time>
      </trkpt>
      <trkpt lat="47.28475" lon="6.14228">
        <ele>249.663</ele>
        <time>2019-09-30T12:32:10Z</time>
      </trkpt>
      <trkpt lat="47.28455" lon="6.14015">
        <ele>247.761</ele>
        <time>2019-09-30T12:32:40Z</time>
      </trkpt>
      <trkpt lat="47.28384" lon="6.13834">
        <ele>250.692</ele>
        <time>2019-09-30T12:33:10Z</time>
      </trkpt>
      <trkpt lat="47.28274" lon="6.13672">
        <ele>252.569</ele>
        <time>2019-09-30T12:33:40Z</time>
      </trkpt>
      <trkpt lat="47.28187" lon="6.13488">
        <ele>250.773</ele>
        <time>2019-09-30T12:34:10Z</time>
      </trkpt>
      <trkpt lat="47.2815" lon="6.13271">
        <ele>249.377</ele>
        <time>2019-09-30T12:34:40Z</time>
      </trkpt>
      <trkpt lat="47.28113" lon="6.13034">
        <ele>250.711</ele>
        <time>2019-09-30T12:35:10Z</time>
      </trkpt>
      <trkpt lat="47.28094" lon="6.12809">
        <ele>249.231</ele>
        <time>2019-09-30T12:35:40Z</time>
      </trkpt>
      <trkpt lat="47.28064" lon="6.12605">
        <ele>249.529</ele>
        <time>2019-09-30T12:36:10Z</time>
      </trkpt>
      <trkpt lat="47.27973" lon="6.12415">
        <ele>250.29</ele>
        <time>2019-09-30T12:36:40Z</time>
      </trkpt>
      <trkpt lat="47.27862" lon="6.12232">
        <ele>250.851</ele>
        <time>2019-09-30T12:37:10Z</time>
      </trkpt>
      <trkpt lat="47.27738" lon="6.12093">
        <ele>252.271</ele>
        <time>2019-09-30T12:37:40Z</time>
      </trkpt>
      <trkpt lat="47.27612" lon="6.11947">
        <ele>250.627</ele>
        <time>2019-09-30T12:38:10Z</time>
      </trkpt>
      <trkpt lat="47.2749" lon="6.11802">
        <ele>249.583</ele>
        <time>2019-09-30T12:38:40Z</time>
      </trkpt>
      <trkpt lat="47.27369" lon="6.11712">
        <ele>249.042</ele>
        <time>2019-09-30T12:39:10Z</time>
      </trkpt>
      <trkpt lat="47.27269" lon="6.116">
        <ele>250.665</ele>
        <time>2019-09-30T12:39:40Z</time>
      </trkpt>
      <trkpt lat="47.27134" lon="6.11467">
        <ele>250.709</ele>
        <time>2019-09-30T12:40:10Z</time>
      </trkpt>
      <trkpt lat="47.27025" lon="6.11301">
        <ele>247.389</ele>
        <time>2019-09-30T12:40:40Z</time>
      </trkpt>
      <trkpt lat="47.26952" lon="6.11098">
        <ele>246.61</ele>
        <time>2019-09-30T12:41:10Z</time>
      </trkpt>
      <trkpt lat="47.26915" lon="6.10875">
        <ele>247.046</ele>
        <time>2019-09-30T12:41:40Z</time>
      </trkpt>
      <trkpt lat="47.26903" lon="6.10653">
        <ele>245.066</ele>
        <time>2019-09-30T12:42:10Z</time>
      </trkpt>
      <trkpt lat="47.26915" lon="6.10426">
        <ele>245.144</ele>
        <time>2019-09-30T12:42:40Z</time>
      </trkpt>
      <trkpt lat="47.26955" lon="6.10196">
        <ele>242.085</ele>
        <time>2019-09-30T12:43:10Z</time>
      </trkpt>
      <trkpt lat="47.2699" lon="6.09965">
        <ele>245.15</ele>
        <time>2019-09-30T12:43:40Z</time>
      </trkpt>
      <trkpt lat="47.26986" lon="6.09724">
        <ele>247.581</ele>
        <time>2019-09-30T12:44:10Z</time>
      </trkpt>
      <trkpt lat="47.26984" lon="6.09485">
        <ele>246.514</ele>
        <time>2019-09-30T12:44:40Z</time>
      </trkpt>
      <trkpt lat="47.27011" lon="6.09246">
        <ele>249.593</ele>
        <time>2019-09-30T12:45:10Z</time>
      </trkpt>
      <trkpt lat="47.27045" lon="6.09018">
        <ele>249.365</ele>
        <time>2019-09-30T12:45:40Z</time>
      </trkpt>
      <trkpt lat="47.2708" lon="6.08798">
        <ele>244.858</ele>
        <time>2019-09-30T12:46:10Z</time>
      </trkpt>
      <trkpt lat="47.27091" lon="6.08572">
        <ele>244.595</ele>
        <time>2019-09-30T12:46:40Z</time>
      </trkpt>
      <trkpt lat="47.27072" lon="6.08478">
        <ele>246.842</ele>
        <time>2019-09-30T12:47:22Z</time>
      </trkpt>
      <trkpt lat="47.26984" lon="6.08498">
        <ele>251.836</ele>
        <time>2019-09-30T12:47:52Z</time>
      </trkpt>
      <trkpt lat="47.26853" lon="6.08564">
        <ele>246.771</ele>
        <time>2019-09-30T12:48:22Z</time>
      </trkpt>
      <trkpt lat="47.26811" lon="6.08804">
        <ele>245.756</ele>
        <time>2019-09-30T12:48:52Z</time>
      </trkpt>
      <trkpt lat="47.26688" lon="6.08871">
        <ele>252.812</ele>
        <time>2019-09-30T12:49:22Z</time>
      </trkpt>
      <trkpt lat="47.26526" lon="6.08806">
        <ele>249.229</ele>
        <time>2019-09-30T12:49:52Z</time>
      </trkpt>
      <trkpt lat="47.26379" lon="6.08728">
        <ele>248.803</ele>
        <time>2019-09-30T12:50:22Z</time>
      </trkpt>
      <trkpt lat="47.26236" lon="6.08659">
        <ele>247.659</ele>
        <time>2019-09-30T12:50:52Z</time>
      </trkpt>
      <trkpt lat="47.26106" lon="6.08559">
        <ele>249.176</ele>
        <time>2019-09-30T12:51:22.001Z</time>
      </trkpt>
      <trkpt lat="47.25976" lon="6.08469">
        <ele>247.155</ele>
        <time>2019-09-30T12:51:52.001Z</time>
      </trkpt>
      <trkpt lat="47.25834" lon="6.08393">
        <ele>245.939</ele>
        <time>2019-09-30T12:52:22.001Z</time>
      </trkpt>
      <trkpt lat="47.25707" lon="6.08312">
        <ele>249.432</ele>
        <time>2019-09-30T12:52:52.001Z</time>
      </trkpt>
      <trkpt lat="47.25552" lon="6.08225">
        <ele>243.387</ele>
        <time>2019-09-30T12:53:22.001Z</time>
      </trkpt>
      <trkpt lat="47.25411" lon="6.08128">
        <ele>245.133</ele>
        <time>2019-09-30T12:53:52.001Z</time>
      </trkpt>
      <trkpt lat="47.253" lon="6.07996">
        <ele>247.457</ele>
        <time>2019-09-30T12:54:22.001Z</time>
      </trkpt>
      <trkpt lat="47.25246" lon="6.07793">
        <ele>247.162</ele>
        <time>2019-09-30T12:54:52.001Z</time>
      </trkpt>
      <trkpt lat="47.25165" lon="6.07597">
        <ele>246.302</ele>
        <time>2019-09-30T12:55:22.001Z</time>
      </trkpt>
      <trkpt lat="47.25037" lon="6.0745">
        <ele>241.566</ele>
        <time>2019-09-30T12:55:52.001Z</time>
      </trkpt>
      <trkpt lat="47.24906" lon="6.07341">
        <ele>240.337</ele>
        <time>2019-09-30T12:56:22.001Z</time>
      </trkpt>
      <trkpt lat="47.24798" lon="6.07213">
        <ele>240.701</ele>
        <time>2019-09-30T12:56:52.001Z</time>
      </trkpt>
      <trkpt lat="47.24709" lon="6.07064">
        <ele>245</ele>
        <time>2019-09-30T12:57:22.001Z</time>
      </trkpt>
      <trkpt lat="47.24608" lon="6.06926">
        <ele>243.234</ele>
        <time>2019-09-30T12:57:52.001Z</time>
      </trkpt>
      <trkpt lat="47.2449" lon="6.06827">
        <ele>245.509</ele>
        <time>2019-09-30T12:58:22.001Z</time>
      </trkpt>
      <trkpt lat="47.24347" lon="6.0677">
        <ele>242.532</ele>
        <time>2019-09-30T12:58:52.001Z</time>
      </trkpt>
      <trkpt lat="47.24201" lon="6.06707">
        <ele>242.221</ele>
        <time>2019-09-30T12:59:22.001Z</time>
      </trkpt>
      <trkpt lat="47.24077" lon="6.06577">
        <ele>243.915</ele>
        <time>2019-09-30T12:59:52.001Z</time>
      </trkpt>
      <trkpt lat="47.23957" lon="6.0644">
        <ele>246.754</ele>
        <time>2019-09-30T13:00:22.001Z</time>
      </trkpt>
      <trkpt lat="47.23847" lon="6.06291">
        <ele>247.526</ele>
        <time>2019-09-30T13:00:52.001Z</time>
      </trkpt>
      <trkpt lat="47.23699" lon="6.0618">
        <ele>242.75</ele>
        <time>2019-09-30T13:01:22.001Z</time>
      </trkpt>
      <trkpt lat="47.23547" lon="6.06127">
        <ele>242.206</ele>
        <time>2019-09-30T13:01:52.001Z</time>
      </trkpt>
      <trkpt lat="47.23396" lon="6.06087">
        <ele>241.45</ele>
        <time>2019-09-30T13:02:22.001Z</time>
      </trkpt>
      <trkpt lat="47.2326" lon="6.05983">
        <ele>244.89</ele>
        <time>2019-09-30T13:02:52.001Z</time>
      </trkpt>
      <trkpt lat="47.23132" lon="6.05869">
        <ele>249.344</ele>
        <time>2019-09-30T13:03:22.001Z</time>
      </trkpt>
      <trkpt lat="47.23006" lon="6.05761">
        <ele>242.853</ele>
        <time>2019-09-30T13:03:52.001Z</time>
      </trkpt>
      <trkpt lat="47.22894" lon="6.05604">
        <ele>247.029</ele>
        <time>2019-09-30T13:04:22.001Z</time>
      </trkpt>
      <trkpt lat="47.22792" lon="6.05431">
        <ele>243.999</ele>
        <time>2019-09-30T13:04:52.001Z</time>
      </trkpt>
      <trkpt lat="47.2272" lon="6.05239">
        <ele>244.043</ele>
        <time>2019-09-30T13:05:22.001Z</time>
      </trkpt>
      <trkpt lat="47.2266" lon="6.0503">
        <ele>246.097</ele>
        <time>2019-09-30T13:05:52.001Z</time>
      </trkpt>
      <trkpt lat="47.22637" lon="6.04945">
        <ele>243.643</ele>
        <time>2019-09-30T13:08:01.001Z</time>
      </trkpt>
      <trkpt lat="47.22603" lon="6.04756">
        <ele>244.406</ele>
        <time>2019-09-30T13:08:31.001Z</time>
      </trkpt>
      <trkpt lat="47.22585" lon="6.04542">
        <ele>243.198</ele>
        <time>2019-09-30T13:09:01.001Z</time>
      </trkpt>
      <trkpt lat="47.22608" lon="6.04311">
        <ele>246.275</ele>
        <time>2019-09-30T13:09:31.001Z</time>
      </trkpt>
      <trkpt lat="47.22665" lon="6.0411">
        <ele>245.6</ele>
        <time>2019-09-30T13:10:01.001Z</time>
      </trkpt>
      <trkpt lat="47.22758" lon="6.0393">
        <ele>243.253</ele>
        <time>2019-09-30T13:10:31.001Z</time>
      </trkpt>
      <trkpt lat="47.22896" lon="6.03843">
        <ele>246.221</ele>
        <time>2019-09-30T13:11:01.001Z</time>
      </trkpt>
      <trkpt lat="47.23033" lon="6.0372">
        <ele>242.699</ele>
        <time>2019-09-30T13:11:31.001Z</time>
      </trkpt>
      <trkpt lat="47.23142" lon="6.03607">
        <ele>242.049</ele>
        <time>2019-09-30T13:12:01.001Z</time>
      </trkpt>
      <trkpt lat="47.2295" lon="6.03044">
        <ele>228.366</ele>
        <time>2019-09-30T13:13:53.001Z</time>
      </trkpt>
      <trkpt lat="47.22846" lon="6.03117">
        <ele>238.725</ele>
        <time>2019-09-30T13:14:23.001Z</time>
      </trkpt>
      <trkpt lat="47.22796" lon="6.03194">
        <ele>240.873</ele>
        <time>2019-09-30T13:15:35.001Z</time>
      </trkpt>
      <trkpt lat="47.22829" lon="6.03156">
        <ele>239.902</ele>
        <time>2019-09-30T13:19:56.001Z</time>
      </trkpt>
      <trkpt lat="47.22921" lon="6.03039">
        <ele>238.055</ele>
        <time>2019-09-30T13:20:26.001Z</time>
      </trkpt>
      <trkpt lat="47.22979" lon="6.0305">
        <ele>236.505</ele>
        <time>2019-09-30T13:20:56.001Z</time>
      </trkpt>
      <trkpt lat="47.23126" lon="6.03638">
        <ele>248.036</ele>
        <time>2019-09-30T13:22:46.001Z</time>
      </trkpt>
      <trkpt lat="47.23164" lon="6.03572">
        <ele>243.899</ele>
        <time>2019-09-30T13:23:16Z</time>
      </trkpt>
      <trkpt lat="47.23314" lon="6.03559">
        <ele>245.266</ele>
        <time>2019-09-30T13:23:46.001Z</time>
      </trkpt>
      <trkpt lat="47.2344" lon="6.03491">
        <ele>243.752</ele>
        <time>2019-09-30T13:24:16Z</time>
      </trkpt>
      <trkpt lat="47.23556" lon="6.03435">
        <ele>249.747</ele>
        <time>2019-09-30T13:24:46.001Z</time>
      </trkpt>
      <trkpt lat="47.23687" lon="6.03358">
        <ele>243.657</ele>
        <time>2019-09-30T13:25:16Z</time>
      </trkpt>
      <trkpt lat="47.23782" lon="6.0326">
        <ele>245.377</ele>
        <time>2019-09-30T13:25:49.001Z</time>
      </trkpt>
      <trkpt lat="47.23778" lon="6.03269">
        <ele>242.819</ele>
        <time>2019-09-30T13:27:10.001Z</time>
      </trkpt>
      <trkpt lat="47.23808" lon="6.03271">
        <ele>240.731</ele>
        <time>2019-09-30T13:27:43.001Z</time>
      </trkpt>
      <trkpt lat="47.2391" lon="6.0317">
        <ele>233.465</ele>
        <time>2019-09-30T13:28:13.001Z</time>
      </trkpt>
      <trkpt lat="47.23997" lon="6.03027">
        <ele>238.776</ele>
        <time>2019-09-30T13:28:43.001Z</time>
      </trkpt>
      <trkpt lat="47.24044" lon="6.02936">
        <ele>247.62</ele>
        <time>2019-09-30T13:29:13.001Z</time>
      </trkpt>
      <trkpt lat="47.24116" lon="6.02793">
        <ele>244.431</ele>
        <time>2019-09-30T13:29:43.001Z</time>
      </trkpt>
      <trkpt lat="47.24175" lon="6.02627">
        <ele>249.95</ele>
        <time>2019-09-30T13:30:13.001Z</time>
      </trkpt>
      <trkpt lat="47.24193" lon="6.0245">
        <ele>249.689</ele>
        <time>2019-09-30T13:30:43.001Z</time>
      </trkpt>
      <trkpt lat="47.24156" lon="6.0232">
        <ele>235.08</ele>
        <time>2019-09-30T13:31:13.001Z</time>
      </trkpt>
      <trkpt lat="47.24093" lon="6.02246">
        <ele>238.382</ele>
        <time>2019-09-30T13:31:43.001Z</time>
      </trkpt>
      <trkpt lat="47.24042" lon="6.02181">
        <ele>243.58</ele>
        <time>2019-09-30T13:32:13.001Z</time>
      </trkpt>
      <trkpt lat="47.24021" lon="6.02186">
        <ele>243.179</ele>
        <time>2019-09-30T13:32:52.001Z</time>
      </trkpt>
      <trkpt lat="47.24002" lon="6.02213">
        <ele>240.042</ele>
        <time>2019-09-30T13:34:37.001Z</time>
      </trkpt>
      <trkpt lat="47.23969" lon="6.02139">
        <ele>240.552</ele>
        <time>2019-09-30T13:35:07.001Z</time>
      </trkpt>
      <trkpt lat="47.23953" lon="6.02123">
        <ele>242.775</ele>
        <time>2019-09-30T13:37:34.001Z</time>
      </trkpt>
      <trkpt lat="47.24018" lon="6.02187">
        <ele>210.442</ele>
        <time>2019-09-30T15:07:16.501Z</time>
      </trkpt>
      <trkpt lat="47.24005" lon="6.02209">
        <ele>242.693</ele>
        <time>2019-09-30T15:12:05Z</time>
      </trkpt>
      <trkpt lat="47.23961" lon="6.02128">
        <ele>250.222</ele>
        <time>2019-09-30T15:12:59Z</time>
      </trkpt>
      <trkpt lat="47.23999" lon="6.0201">
        <ele>240.662</ele>
        <time>2019-09-30T15:13:29Z</time>
      </trkpt>
      <trkpt lat="47.24081" lon="6.0204">
        <ele>253.12</ele>
        <time>2019-09-30T15:13:59Z</time>
      </trkpt>
      <trkpt lat="47.24184" lon="6.02077">
        <ele>271.891</ele>
        <time>2019-09-30T15:14:29Z</time>
      </trkpt>
      <trkpt lat="47.24281" lon="6.02129">
        <ele>281.168</ele>
        <time>2019-09-30T15:14:59Z</time>
      </trkpt>
      <trkpt lat="47.24356" lon="6.02189">
        <ele>289.211</ele>
        <time>2019-09-30T15:15:29Z</time>
      </trkpt>
      <trkpt lat="47.24442" lon="6.02184">
        <ele>272.22</ele>
        <time>2019-09-30T15:16:02Z</time>
      </trkpt>
      <trkpt lat="47.24492" lon="6.02113">
        <ele>272.548</ele>
        <time>2019-09-30T15:16:32Z</time>
      </trkpt>
      <trkpt lat="47.24526" lon="6.02047">
        <ele>281.956</ele>
        <time>2019-09-30T15:17:02Z</time>
      </trkpt>
      <trkpt lat="47.24555" lon="6.01948">
        <ele>287.442</ele>
        <time>2019-09-30T15:17:38Z</time>
      </trkpt>
      <trkpt lat="47.24631" lon="6.01919">
        <ele>295.13</ele>
        <time>2019-09-30T15:18:08Z</time>
      </trkpt>
      <trkpt lat="47.24638" lon="6.01892">
        <ele>284.366</ele>
        <time>2019-09-30T15:18:38Z</time>
      </trkpt>
      <trkpt lat="47.24561" lon="6.01792">
        <ele>291.875</ele>
        <time>2019-09-30T15:19:08Z</time>
      </trkpt>
      <trkpt lat="47.24617" lon="6.01715">
        <ele>295.757</ele>
        <time>2019-09-30T15:19:38Z</time>
      </trkpt>
      <trkpt lat="47.24697" lon="6.01703">
        <ele>298.83</ele>
        <time>2019-09-30T15:20:08Z</time>
      </trkpt>
      <trkpt lat="47.24757" lon="6.01681">
        <ele>302.681</ele>
        <time>2019-09-30T15:20:38Z</time>
      </trkpt>
      <trkpt lat="47.24819" lon="6.01657">
        <ele>305.974</ele>
        <time>2019-09-30T15:21:08Z</time>
      </trkpt>
      <trkpt lat="47.24876" lon="6.01628">
        <ele>321.647</ele>
        <time>2019-09-30T15:21:41Z</time>
      </trkpt>
      <trkpt lat="47.24929" lon="6.01684">
        <ele>317.108</ele>
        <time>2019-09-30T15:22:14Z</time>
      </trkpt>
      <trkpt lat="47.24906" lon="6.0168">
        <ele>317.908</ele>
        <time>2019-09-30T15:29:56Z</time>
      </trkpt>
      <trkpt lat="47.24909" lon="6.01666">
        <ele>314.461</ele>
        <time>2019-09-30T15:30:44Z</time>
      </trkpt>
      <trkpt lat="47.24847" lon="6.0179">
        <ele>290.711</ele>
        <time>2019-09-30T15:34:43Z</time>
      </trkpt>
      <trkpt lat="47.2492" lon="6.01669">
        <ele>320.809</ele>
        <time>2019-09-30T15:38:58.001Z</time>
      </trkpt>
      <trkpt lat="47.24977" lon="6.01666">
        <ele>328.155</ele>
        <time>2019-09-30T15:40:04.001Z</time>
      </trkpt>
      <trkpt lat="47.2499" lon="6.01678">
        <ele>308</ele>
        <time>2019-09-30T15:41:40.001Z</time>
      </trkpt>
      <trkpt lat="47.24978" lon="6.01653">
        <ele>331.681</ele>
        <time>2019-09-30T15:45:28.001Z</time>
      </trkpt>
    </trkseg>
  </trk>
</gpx>